createdAt,value
2018-09-05T00:00:21.443Z,101008.31
2018-09-05T00:02:49.504Z,101002.86
2018-09-05T00:05:17.522Z,101000.98
2018-09-05T00:07:45.565Z,101009.87
2018-09-05T00:10:13.560Z,100995.38
2018-09-05T00:12:41.572Z,101003.66
2018-09-05T00:15:09.593Z,101001.33
2018-09-05T00:17:37.595Z,100998.28
2018-09-05T00:20:05.605Z,100993.70
2018-09-05T00:22:33.605Z,100992.05
2018-09-05T00:25:01.638Z,100992.12
2018-09-05T00:27:29.676Z,100993.32
2018-09-05T00:29:57.689Z,100989.18
2018-09-05T00:32:25.717Z,101000.20
2018-09-05T00:34:53.720Z,100989.53
2018-09-05T00:37:21.811Z,100989.56
2018-09-05T00:39:49.848Z,100989.27
2018-09-05T00:42:17.840Z,100987.70
2018-09-05T00:44:45.844Z,100989.84
2018-09-05T00:47:13.890Z,100983.98
2018-09-05T00:49:41.876Z,100988.74
2018-09-05T00:52:09.905Z,100992.14
2018-09-05T00:54:37.925Z,100990.45
2018-09-05T00:57:05.948Z,100986.37
2018-09-05T00:59:33.938Z,100986.19
2018-09-05T01:02:02.129Z,100991.18
2018-09-05T01:04:30.257Z,100995.64
2018-09-05T01:06:58.288Z,100987.91
2018-09-05T01:09:26.275Z,100987.75
2018-09-05T01:11:54.364Z,100991.53
2018-09-05T01:14:22.405Z,100990.80
2018-09-05T01:16:50.412Z,100994.58
2018-09-05T01:19:18.436Z,100997.81
2018-09-05T01:21:46.457Z,100998.52
2018-09-05T01:24:14.499Z,100995.99
2018-09-05T01:26:42.514Z,100991.80
2018-09-05T01:29:10.541Z,100987.41
2018-09-05T01:31:38.561Z,100984.94
2018-09-05T01:34:06.607Z,100988.97
2018-09-05T01:36:34.588Z,100985.84
2018-09-05T01:39:02.628Z,100985.38
2018-09-05T01:41:30.705Z,100987.06
2018-09-05T01:43:58.728Z,100989.62
2018-09-05T01:46:26.772Z,100993.09
2018-09-05T01:48:54.906Z,100990.04
2018-09-05T01:51:22.900Z,100996.22
2018-09-05T01:53:50.922Z,100990.80
2018-09-05T01:56:18.996Z,100988.81
2018-09-05T01:58:46.997Z,100983.06
2018-09-05T02:01:14.981Z,100985.18
2018-09-05T02:03:43.016Z,100987.57
2018-09-05T02:06:11.033Z,100983.69
2018-09-05T02:08:39.081Z,100986.13
2018-09-05T02:11:07.121Z,100984.22
2018-09-05T02:13:35.149Z,100984.06
2018-09-05T02:16:03.197Z,100985.53
2018-09-05T02:18:31.201Z,100987.33
2018-09-05T02:20:59.218Z,100983.47
2018-09-05T02:23:27.239Z,100986.63
2018-09-05T02:25:55.244Z,100983.97
2018-09-05T02:28:23.260Z,100988.00
2018-09-05T02:30:51.365Z,100976.25
2018-09-05T02:33:19.369Z,100976.60
2018-09-05T02:35:47.401Z,100980.84
2018-09-05T02:38:15.434Z,100972.02
2018-09-05T02:40:43.625Z,100974.56
2018-09-05T02:43:11.683Z,100967.92
2018-09-05T02:45:39.685Z,100965.83
2018-09-05T02:48:07.704Z,100964.11
2018-09-05T02:50:35.734Z,100969.36
2018-09-05T02:53:03.765Z,100973.97
2018-09-05T02:55:37.345Z,100975.29
2018-09-05T02:58:05.644Z,100975.41
2018-09-05T03:00:33.892Z,100974.77
2018-09-05T03:03:01.903Z,100973.70
2018-09-05T03:05:30.012Z,100968.77
2018-09-05T03:07:58.017Z,100975.53
2018-09-05T03:10:26.067Z,100975.55
2018-09-05T03:12:54.114Z,100974.09
2018-09-05T03:15:22.145Z,100974.33
2018-09-05T03:17:50.120Z,100971.51
2018-09-05T03:20:18.129Z,100971.75
2018-09-05T03:22:46.202Z,100973.55
2018-09-05T03:25:14.367Z,100974.66
2018-09-05T03:27:42.456Z,100963.03
2018-09-05T03:30:10.721Z,100968.09
2018-09-05T03:32:38.858Z,100967.00
2018-09-05T03:35:06.960Z,100971.13
2018-09-05T03:37:34.992Z,100973.94
2018-09-05T03:40:03.126Z,100980.84
2018-09-05T03:42:31.147Z,100974.66
2018-09-05T03:44:59.197Z,100981.92
2018-09-05T03:47:27.290Z,100976.45
2018-09-05T03:49:55.321Z,100976.84
2018-09-05T03:52:23.360Z,100968.33
2018-09-05T03:54:51.396Z,100970.61
2018-09-05T03:57:19.761Z,100980.41
2018-09-05T03:59:47.794Z,100980.66
2018-09-05T04:02:15.881Z,100981.25
2018-09-05T04:04:43.905Z,100976.36
2018-09-05T04:07:11.923Z,100978.77
2018-09-05T04:09:39.921Z,100974.38
2018-09-05T04:12:07.962Z,100976.58
2018-09-05T04:14:35.948Z,100975.25
2018-09-05T04:17:03.982Z,100980.66
2018-09-05T04:19:32.018Z,100982.08
2018-09-05T04:22:00.017Z,100988.42
2018-09-05T04:24:28.002Z,100987.60
2018-09-05T04:26:56.073Z,100993.22
2018-09-05T04:29:24.102Z,100985.34
2018-09-05T04:31:52.055Z,100986.91
2018-09-05T04:34:20.045Z,100987.06
2018-09-05T04:36:48.116Z,100987.17
2018-09-05T04:39:16.233Z,100987.31
2018-09-05T04:41:44.236Z,100985.00
2018-09-05T04:44:12.333Z,100985.38
2018-09-05T04:46:40.368Z,100992.53
2018-09-05T04:49:08.393Z,100995.06
2018-09-05T04:52:16.480Z,101004.61
2018-09-05T04:54:44.512Z,100999.95
2018-09-05T04:57:12.593Z,101006.69
2018-09-05T04:59:40.705Z,101007.94
2018-09-05T05:02:08.743Z,101006.36
2018-09-05T05:04:36.902Z,101006.74
2018-09-05T05:07:04.880Z,101006.37
2018-09-05T05:09:33.084Z,101012.31
2018-09-05T05:12:01.081Z,101012.63
2018-09-05T05:14:29.096Z,101016.89
2018-09-05T05:16:57.347Z,101018.17
2018-09-05T05:19:25.345Z,101018.73
2018-09-05T05:21:53.360Z,101024.67
2018-09-05T05:24:21.376Z,101024.17
2018-09-05T05:26:49.423Z,101022.86
2018-09-05T05:29:17.421Z,101027.92
2018-09-05T05:31:45.438Z,101029.91
2018-09-05T05:34:13.451Z,101030.27
2018-09-05T05:36:41.521Z,101031.23
2018-09-05T05:39:10.965Z,101031.18
2018-09-05T05:41:39.057Z,101029.33
2018-09-05T05:44:07.120Z,101030.84
2018-09-05T05:46:35.412Z,101040.50
2018-09-05T05:49:03.761Z,101037.98
2018-09-05T05:51:31.909Z,101040.84
2018-09-05T05:54:00.176Z,101039.78
2018-09-05T05:56:28.177Z,101039.32
2018-09-05T05:58:56.210Z,101049.98
2018-09-05T06:01:24.239Z,101054.33
2018-09-05T06:03:52.323Z,101057.55
2018-09-05T06:06:20.529Z,101056.00
2018-09-05T06:08:48.332Z,101056.86
2018-09-05T06:11:16.408Z,101061.40
2018-09-05T06:13:44.438Z,101064.34
2018-09-05T06:16:12.510Z,101072.21
2018-09-05T06:18:41.169Z,101068.45
2018-09-05T06:21:09.271Z,101077.49
2018-09-05T06:23:37.372Z,101081.12
2018-09-05T06:26:05.554Z,101079.64
2018-09-05T06:28:33.730Z,101080.95
2018-09-05T06:31:01.768Z,101080.31
2018-09-05T06:33:29.769Z,101075.88
2018-09-05T06:35:57.805Z,101087.19
2018-09-05T06:38:25.876Z,101088.25
2018-09-05T06:40:53.952Z,101079.80
2018-09-05T06:43:21.985Z,101080.42
2018-09-05T06:45:49.992Z,101083.91
2018-09-05T06:48:18.019Z,101088.10
2018-09-05T06:50:46.033Z,101087.67
2018-09-05T06:53:14.052Z,101087.80
2018-09-05T06:55:42.109Z,101084.80
2018-09-05T06:58:10.363Z,101087.95
2018-09-05T07:00:38.341Z,101086.73
2018-09-05T07:03:06.525Z,101082.62
2018-09-05T07:05:34.533Z,101077.22
2018-09-05T07:08:02.568Z,101080.66
2018-09-05T07:10:30.629Z,101083.81
2018-09-05T07:12:58.669Z,101084.55
2018-09-05T07:15:26.676Z,101087.84
2018-09-05T07:17:54.703Z,101088.09
2018-09-05T07:20:22.720Z,101091.80
2018-09-05T07:22:50.859Z,101096.77
2018-09-05T07:25:18.892Z,101100.27
2018-09-05T07:27:46.994Z,101105.31
2018-09-05T07:30:16.534Z,101104.04
2018-09-05T07:32:44.905Z,101109.05
2018-09-05T07:35:12.917Z,101106.56
2018-09-05T07:37:40.914Z,101111.35
2018-09-05T07:40:08.913Z,101116.98
2018-09-05T07:42:36.936Z,101116.70
2018-09-05T07:45:04.946Z,101114.38
2018-09-05T07:47:32.997Z,101118.60
2018-09-05T07:50:01.037Z,101114.92
2018-09-05T07:52:29.261Z,101120.40
2018-09-05T07:54:57.270Z,101122.55
2018-09-05T07:57:25.338Z,101120.27
2018-09-05T07:59:53.355Z,101121.81
2018-09-05T08:02:21.381Z,101118.33
2018-09-05T08:04:49.388Z,101120.12
2018-09-05T08:07:17.475Z,101112.28
2018-09-05T08:09:45.469Z,101114.57
2018-09-05T08:12:13.478Z,101114.98
2018-09-05T08:14:41.477Z,101113.80
2018-09-05T08:17:09.525Z,101115.13
2018-09-05T08:19:37.569Z,101114.27
2018-09-05T08:22:05.584Z,101114.58
2018-09-05T08:24:33.657Z,101108.51
2018-09-05T08:27:01.697Z,101117.03
2018-09-05T08:29:29.778Z,101106.84
2018-09-05T08:31:57.752Z,101109.48
2018-09-05T08:34:25.773Z,101111.36
2018-09-05T08:36:54.296Z,101103.23
2018-09-05T08:39:21.987Z,101102.96
2018-09-05T08:41:50.116Z,101104.27
2018-09-05T08:44:18.287Z,101097.16
2018-09-05T08:46:46.161Z,101095.72
2018-09-05T08:49:14.115Z,101097.58
2018-09-05T08:51:42.105Z,101105.91
2018-09-05T08:54:10.166Z,101107.55
2018-09-05T08:56:38.206Z,101106.64
2018-09-05T08:59:06.197Z,101107.87
2018-09-05T09:01:34.473Z,101109.25
2018-09-05T09:04:02.649Z,101100.73
2018-09-05T09:06:30.696Z,101102.31
2018-09-05T09:08:58.755Z,101101.28
2018-09-05T09:11:26.761Z,101103.27
2018-09-05T09:13:54.772Z,101101.28
2018-09-05T09:16:22.772Z,101101.16
2018-09-05T09:18:50.788Z,101096.47
2018-09-05T09:21:18.795Z,101098.39
2018-09-05T09:23:46.809Z,101097.97
2018-09-05T09:26:14.910Z,101094.59
2018-09-05T09:28:42.948Z,101100.17
2018-09-05T09:31:10.974Z,101101.45
2018-09-05T09:33:38.989Z,101100.52
2018-09-05T09:36:07.229Z,101089.41
2018-09-05T09:38:35.237Z,101097.15
2018-09-05T09:41:03.280Z,101094.63
2018-09-05T09:43:31.290Z,101098.69
2018-09-05T09:45:59.344Z,101091.48
2018-09-05T09:48:27.363Z,101090.09
2018-09-05T09:50:55.317Z,101095.66
2018-09-05T09:53:23.420Z,101094.61
2018-09-05T09:55:51.433Z,101095.85
2018-09-05T09:58:19.569Z,101096.34
2018-09-05T10:00:53.041Z,101095.58
2018-09-05T10:03:26.651Z,101095.38
2018-09-05T10:06:00.112Z,101096.92
2018-09-05T10:08:31.297Z,101100.97
2018-09-05T10:11:02.420Z,101092.31
2018-09-05T10:13:35.793Z,101090.22
2018-09-05T10:16:09.176Z,101091.56
2018-09-05T10:18:39.457Z,101088.50
2018-09-05T10:21:07.508Z,101098.63
2018-09-05T10:23:35.426Z,101082.67
2018-09-05T10:26:03.422Z,101084.05
2018-09-05T10:28:31.417Z,101080.63
2018-09-05T10:30:59.429Z,101080.00
2018-09-05T10:33:27.429Z,101082.55
2018-09-05T10:35:55.459Z,101079.47
2018-09-05T10:38:23.437Z,101076.91
2018-09-05T10:40:51.440Z,101072.39
2018-09-05T10:43:19.433Z,101068.70
2018-09-05T10:45:47.440Z,101066.50
2018-09-05T10:48:15.533Z,101067.97
2018-09-05T10:50:43.686Z,101060.41
2018-09-05T10:53:11.679Z,101055.33
2018-09-05T10:55:39.712Z,101048.57
2018-09-05T10:58:07.713Z,101051.61
2018-09-05T11:00:35.717Z,101047.22
2018-09-05T11:03:03.776Z,101041.17
2018-09-05T11:05:31.779Z,101034.44
2018-09-05T11:07:59.794Z,101035.73
2018-09-05T11:10:27.846Z,101044.51
2018-09-05T11:12:55.861Z,101037.41
2018-09-05T11:15:23.864Z,101036.58
2018-09-05T11:17:51.865Z,101033.11
2018-09-05T11:20:19.896Z,101037.32
2018-09-05T11:22:47.985Z,101025.00
2018-09-05T11:25:16.013Z,101019.94
2018-09-05T11:27:44.044Z,101011.37
2018-09-05T11:30:12.017Z,101013.17
2018-09-05T11:32:40.057Z,101020.72
2018-09-05T11:35:08.161Z,101005.63
2018-09-05T11:37:36.190Z,101006.34
2018-09-05T11:40:04.242Z,101007.34
2018-09-05T11:42:32.308Z,101010.36
2018-09-05T11:45:00.447Z,100999.20
2018-09-05T11:47:28.549Z,101003.52
2018-09-05T11:49:56.631Z,100993.02
2018-09-05T11:52:24.815Z,100999.98
2018-09-05T11:54:52.823Z,100996.30
2018-09-05T11:57:21.256Z,100997.66
2018-09-05T11:59:49.349Z,100997.28
2018-09-05T12:02:17.433Z,101000.20
2018-09-05T12:04:45.444Z,100991.32
2018-09-05T12:07:13.448Z,100994.69
2018-09-05T12:09:41.453Z,101000.91
2018-09-05T12:12:09.881Z,100993.12
2018-09-05T12:14:37.908Z,100988.86
2018-09-05T12:17:05.949Z,100994.38
2018-09-05T12:19:33.973Z,100990.14
2018-09-05T12:22:01.998Z,100992.67
2018-09-05T12:24:30.089Z,100985.44
2018-09-05T12:26:58.714Z,100986.53
2018-09-05T12:29:29.788Z,100991.03
2018-09-05T12:31:57.889Z,100979.36
2018-09-05T12:34:26.137Z,100985.31
2018-09-05T12:36:54.396Z,100978.20
2018-09-05T12:39:22.389Z,100981.05
2018-09-05T12:41:50.545Z,100972.81
2018-09-05T12:44:18.616Z,100968.69
2018-09-05T12:46:46.645Z,100970.70
2018-09-05T12:49:14.715Z,100963.88
2018-09-05T12:51:42.807Z,100961.17
2018-09-05T12:54:11.175Z,100955.48
2018-09-05T12:56:39.247Z,100962.30
2018-09-05T12:59:07.540Z,100952.23
2018-09-05T13:01:35.529Z,100950.66
2018-09-05T13:04:03.628Z,100953.63
2018-09-05T13:06:31.673Z,100951.19
2018-09-05T13:09:00.077Z,100959.14
2018-09-05T13:11:28.417Z,100959.64
2018-09-05T13:13:56.570Z,100956.02
2018-09-05T13:16:24.653Z,100956.00
2018-09-05T13:18:52.644Z,100955.56
2018-09-05T13:21:20.838Z,100954.13
2018-09-05T13:23:49.185Z,100957.34
2018-09-05T13:26:17.544Z,100954.56
2018-09-05T13:28:45.703Z,100952.16
2018-09-05T13:31:13.692Z,100944.31
2018-09-05T13:33:41.758Z,100940.05
2018-09-05T13:36:09.760Z,100933.54
2018-09-05T13:38:37.775Z,100933.91
2018-09-05T13:41:05.761Z,100931.28
2018-09-05T13:43:33.792Z,100933.42
2018-09-05T13:46:01.866Z,100929.09
2018-09-05T13:48:29.887Z,100925.73
2018-09-05T13:50:57.898Z,100917.72
2018-09-05T13:53:25.970Z,100921.52
2018-09-05T13:55:53.980Z,100914.75
2018-09-05T13:58:22.009Z,100908.08
2018-09-05T14:00:50.151Z,100904.55
2018-09-05T14:03:18.284Z,100905.48
2018-09-05T14:05:46.291Z,100896.17
2018-09-05T14:08:14.611Z,100893.19
2018-09-05T14:10:42.598Z,100894.46
2018-09-05T14:13:10.608Z,100891.63
2018-09-05T14:15:38.626Z,100892.33
2018-09-05T14:18:06.680Z,100881.24
2018-09-05T14:20:34.762Z,100879.91
2018-09-05T14:23:02.753Z,100874.52
2018-09-05T14:25:30.781Z,100873.76
2018-09-05T14:27:58.856Z,100875.77
2018-09-05T14:30:26.997Z,100872.11
2018-09-05T14:32:54.980Z,100872.95
2018-09-05T14:35:22.977Z,100876.95
2018-09-05T14:37:51.164Z,100871.97
2018-09-05T14:40:19.224Z,100873.16
2018-09-05T14:42:47.672Z,100874.09
2018-09-05T14:45:16.216Z,100871.67
2018-09-05T14:47:44.271Z,100867.82
2018-09-05T14:50:12.343Z,100869.16
2018-09-05T14:52:40.457Z,100868.28
2018-09-05T14:55:08.693Z,100862.10
2018-09-05T14:57:36.773Z,100865.53
2018-09-05T15:00:05.429Z,100858.18
2018-09-05T15:02:33.408Z,100856.33
2018-09-05T15:05:01.449Z,100853.92
2018-09-05T15:07:29.549Z,100853.92
2018-09-05T15:09:57.597Z,100852.86
2018-09-05T15:12:25.674Z,100851.69
2018-09-05T15:14:53.704Z,100851.69
2018-09-05T15:17:21.741Z,100846.77
2018-09-05T15:19:50.303Z,100844.39
2018-09-05T15:22:18.344Z,100837.17
2018-09-05T15:24:46.344Z,100846.42
2018-09-05T15:27:14.366Z,100837.97
2018-09-05T15:29:42.507Z,100832.00
2018-09-05T15:32:10.503Z,100837.06
2018-09-05T15:34:38.489Z,100839.74
2018-09-05T15:37:06.498Z,100834.88
2018-09-05T15:39:34.517Z,100830.92
2018-09-05T15:42:02.553Z,100831.53
2018-09-05T15:44:37.257Z,100823.98
2018-09-05T15:47:05.379Z,100821.28
2018-09-05T15:49:33.378Z,100821.39
2018-09-05T15:52:01.387Z,100813.02
2018-09-05T15:54:29.398Z,100816.66
2018-09-05T15:56:57.394Z,100821.33
2018-09-05T15:59:25.384Z,100822.73
2018-09-05T16:01:54.412Z,100815.57
2018-09-05T16:04:22.409Z,100813.36
2018-09-05T16:06:50.417Z,100820.16
2018-09-05T16:09:18.417Z,100815.98
2018-09-05T16:11:46.426Z,100814.48
2018-09-05T16:14:14.429Z,100818.85
2018-09-05T16:16:42.430Z,100815.12
2018-09-05T16:19:10.412Z,100816.56
2018-09-05T16:21:38.420Z,100813.52
2018-09-05T16:24:06.540Z,100818.42
2018-09-05T16:26:34.577Z,100809.86
2018-09-05T16:29:02.576Z,100811.48
2018-09-05T16:31:30.585Z,100809.76
2018-09-05T16:33:58.576Z,100811.63
2018-09-05T16:36:26.654Z,100813.91
2018-09-05T16:38:54.641Z,100806.98
2018-09-05T16:41:22.791Z,100804.86
2018-09-05T16:43:50.849Z,100805.25
2018-09-05T16:46:18.903Z,100803.50
2018-09-05T16:48:47.007Z,100803.27
2018-09-05T16:51:15.137Z,100800.59
2018-09-05T16:53:43.156Z,100801.91
2018-09-05T16:56:11.193Z,100799.00
2018-09-05T16:58:39.205Z,100794.45
2018-09-05T17:01:07.409Z,100797.56
2018-09-05T17:03:35.552Z,100797.51
2018-09-05T17:06:03.591Z,100794.80
2018-09-05T17:08:31.617Z,100793.37
2018-09-05T17:10:59.629Z,100790.48
2018-09-05T17:13:27.654Z,100786.78
2018-09-05T17:15:55.677Z,100786.14
2018-09-05T17:18:23.820Z,100783.43
2018-09-05T17:20:51.900Z,100785.03
2018-09-05T17:23:19.965Z,100784.25
2018-09-05T17:25:47.964Z,100783.67
2018-09-05T17:28:16.648Z,100790.75
2018-09-05T17:30:44.823Z,100783.62
2018-09-05T17:33:12.875Z,100781.08
2018-09-05T17:35:40.969Z,100785.48
2018-09-05T17:38:09.016Z,100788.50
2018-09-05T17:40:37.033Z,100784.75
2018-09-05T17:43:05.229Z,100787.55
2018-09-05T17:45:33.318Z,100786.61
2018-09-05T17:48:01.329Z,100790.73
2018-09-05T17:50:30.333Z,100790.36
2018-09-05T17:52:58.319Z,100787.73
2018-09-05T17:55:26.373Z,100795.41
2018-09-05T17:57:54.376Z,100796.94
2018-09-05T18:00:22.408Z,100796.51
2018-09-05T18:02:50.813Z,100794.95
2018-09-05T18:05:18.853Z,100798.72
2018-09-05T18:07:46.994Z,100792.95
2018-09-05T18:10:15.010Z,100794.22
2018-09-05T18:12:43.030Z,100798.82
2018-09-05T18:15:11.052Z,100799.07
2018-09-05T18:17:39.061Z,100797.34
2018-09-05T18:20:07.304Z,100798.46
2018-09-05T18:22:35.333Z,100794.41
2018-09-05T18:25:03.365Z,100797.90
2018-09-05T18:27:31.756Z,100802.53
2018-09-05T18:29:59.796Z,100800.90
2018-09-05T18:32:27.880Z,100801.97
2018-09-05T18:34:55.891Z,100800.61
2018-09-05T18:37:23.901Z,100803.52
2018-09-05T18:39:52.017Z,100796.81
2018-09-05T18:42:20.292Z,100799.17
2018-09-05T18:44:48.426Z,100797.52
2018-09-05T18:47:16.592Z,100801.12
2018-09-05T18:49:44.687Z,100802.91
2018-09-05T18:52:12.730Z,100802.94
2018-09-05T18:54:40.765Z,100807.20
2018-09-05T18:57:08.800Z,100801.18
2018-09-05T18:59:37.066Z,100804.58
2018-09-05T19:02:05.225Z,100801.59
2018-09-05T19:04:33.264Z,100802.01
2018-09-05T19:07:01.294Z,100801.22
2018-09-05T19:09:29.288Z,100805.22
2018-09-05T19:11:57.376Z,100807.69
2018-09-05T19:14:25.508Z,100800.27
2018-09-05T19:16:53.549Z,100805.50
2018-09-05T19:19:21.541Z,100801.45
2018-09-05T19:21:49.577Z,100798.30
2018-09-05T19:24:17.647Z,100797.14
2018-09-05T19:26:45.697Z,100798.66
2018-09-05T19:29:13.783Z,100797.66
2018-09-05T19:31:41.777Z,100798.19
2018-09-05T19:36:39.961Z,100797.32
2018-09-05T19:39:09.529Z,100797.66
2018-09-05T19:41:38.589Z,100795.49
2018-09-05T19:44:06.689Z,100792.46
2018-09-05T19:46:34.957Z,100793.96
2018-09-05T19:49:03.089Z,100789.76
2018-09-05T19:51:31.178Z,100795.30
2018-09-05T19:53:59.232Z,100796.64
2018-09-05T19:56:27.385Z,100791.73
2018-09-05T19:58:55.473Z,100787.20
2018-09-05T20:01:23.505Z,100788.38
2018-09-05T20:03:51.565Z,100781.45
2018-09-05T20:06:20.840Z,100786.00
2018-09-05T20:08:48.932Z,100795.57
2018-09-05T20:11:16.968Z,100789.16
2018-09-05T20:13:44.983Z,100789.28
2018-09-05T20:16:13.001Z,100785.34
2018-09-05T20:18:41.010Z,100788.03
2018-09-05T20:21:09.010Z,100785.65
2018-09-05T20:23:37.122Z,100786.97
2018-09-05T20:26:05.089Z,100790.13
2018-09-05T20:28:33.115Z,100787.09
2018-09-05T20:31:01.095Z,100788.94
2018-09-05T20:33:29.095Z,100788.22
2018-09-05T20:35:57.499Z,100783.87
2018-09-05T20:38:25.733Z,100786.57
2018-09-05T20:40:53.772Z,100780.63
2018-09-05T20:43:21.785Z,100781.42
2018-09-05T20:45:49.902Z,100783.42
2018-09-05T20:48:17.916Z,100782.48
2018-09-05T20:50:45.953Z,100777.91
2018-09-05T20:53:14.073Z,100780.13
2018-09-05T20:55:42.201Z,100780.20
2018-09-05T20:58:10.246Z,100768.77
2018-09-05T21:00:38.241Z,100764.77
2018-09-05T21:03:06.238Z,100766.89
2018-09-05T21:05:34.246Z,100768.03
2018-09-05T21:08:02.281Z,100765.61
2018-09-05T21:10:30.292Z,100763.70
2018-09-05T21:12:58.497Z,100760.48
2018-09-05T21:15:26.520Z,100759.45
2018-09-05T21:17:54.672Z,100760.48
2018-09-05T21:20:22.714Z,100758.63
2018-09-05T21:22:50.718Z,100765.20
2018-09-05T21:25:18.759Z,100759.59
2018-09-05T21:27:46.754Z,100761.34
2018-09-05T21:30:14.759Z,100762.10
2018-09-05T21:32:42.843Z,100757.95
2018-09-05T21:35:10.822Z,100760.77
2018-09-05T21:37:38.822Z,100753.11
2018-09-05T21:40:07.102Z,100757.40
2018-09-05T21:42:35.105Z,100757.50
2018-09-05T21:45:03.099Z,100757.03
2018-09-05T21:47:31.118Z,100758.80
2018-09-05T21:49:59.144Z,100755.55
2018-09-05T21:52:27.221Z,100759.80
2018-09-05T21:54:55.745Z,100759.41
2018-09-05T21:57:23.789Z,100763.59
2018-09-05T21:59:52.086Z,100762.75
2018-09-05T22:02:20.106Z,100763.38
2018-09-05T22:04:48.142Z,100765.92
2018-09-05T22:07:16.345Z,100758.59
2018-09-05T22:09:44.488Z,100762.11
2018-09-05T22:12:12.497Z,100754.44
2018-09-05T22:14:40.517Z,100763.77
2018-09-05T22:17:08.538Z,100762.63
2018-09-05T22:19:36.581Z,100759.75
2018-09-05T22:22:04.588Z,100760.31
2018-09-05T22:24:32.600Z,100760.18
2018-09-05T22:27:00.636Z,100761.63
2018-09-05T22:29:28.625Z,100765.03
2018-09-05T22:31:56.784Z,100765.87
2018-09-05T22:34:24.817Z,100760.20
2018-09-05T22:36:52.824Z,100761.41
2018-09-05T22:39:20.849Z,100763.47
2018-09-05T22:41:48.860Z,100761.13
2018-09-05T22:44:28.254Z,100760.67
2018-09-05T22:47:07.730Z,100756.08
2018-09-05T22:52:57.277Z,100760.59
2018-09-05T22:56:39.418Z,100751.39
2018-09-05T22:59:15.949Z,100751.30
2018-09-05T23:04:01.278Z,100752.64
2018-09-05T23:06:39.325Z,100751.67
2018-09-05T23:09:08.574Z,100748.75
2018-09-05T23:12:00.021Z,100752.76
2018-09-05T23:14:40.297Z,100743.41
2018-09-05T23:17:20.221Z,100743.81
2018-09-05T23:20:03.981Z,100734.46
2018-09-05T23:22:43.231Z,100738.19
2018-09-05T23:25:11.236Z,100738.77
2018-09-05T23:27:39.263Z,100734.96
2018-09-05T23:30:07.425Z,100727.91
2018-09-05T23:32:35.493Z,100729.83
2018-09-05T23:35:03.544Z,100725.86
2018-09-05T23:37:31.546Z,100716.88
2018-09-05T23:40:00.557Z,100714.92
2018-09-05T23:42:28.625Z,100719.13
2018-09-05T23:44:56.889Z,100708.86
2018-09-05T23:47:24.914Z,100706.09
2018-09-05T23:49:52.926Z,100700.97
2018-09-05T23:52:20.995Z,100698.95
2018-09-05T23:54:49.051Z,100697.09
2018-09-05T23:57:17.013Z,100700.63
2018-09-05T23:59:45.131Z,100697.11
